createdAt,value
2018-12-07T00:01:10.607Z,97.00
2018-12-07T00:03:40.073Z,138.93
2018-12-07T00:06:09.502Z,101.07
2018-12-07T00:08:41.102Z,117.07
2018-12-07T00:11:11.773Z,125.60
2018-12-07T00:13:41.110Z,123.77
2018-12-07T00:16:10.660Z,149.17
2018-12-07T00:18:40.133Z,145.93
2018-12-07T00:21:09.405Z,142.20
2018-12-07T00:23:38.744Z,113.37
2018-12-07T00:26:08.248Z,130.60
2018-12-07T00:28:38.671Z,108.90
2018-12-07T00:31:09.423Z,123.43
2018-12-07T00:33:38.781Z,83.57
2018-12-07T00:36:08.430Z,99.00
2018-12-07T00:38:44.140Z,147.00
2018-12-07T00:41:13.710Z,118.80
2018-12-07T00:43:44.654Z,103.07
2018-12-07T00:46:14.085Z,99.30
2018-12-07T00:48:43.359Z,99.47
2018-12-07T00:51:13.292Z,93.10
2018-12-07T00:53:42.880Z,103.40
2018-12-07T00:56:13.842Z,121.63
2018-12-07T00:58:43.359Z,95.90
2018-12-07T01:01:12.765Z,78.00
2018-12-07T01:03:43.817Z,92.13
2018-12-07T01:06:13.313Z,97.50
2018-12-07T01:08:42.778Z,108.63
2018-12-07T01:11:12.202Z,92.90
2018-12-07T01:13:43.275Z,115.50
2018-12-07T01:16:12.812Z,118.20
2018-12-07T01:18:42.184Z,93.33
2018-12-07T01:21:11.527Z,113.20
2018-12-07T01:23:40.944Z,115.57
2018-12-07T01:26:10.585Z,94.03
2018-12-07T01:28:39.897Z,105.63
2018-12-07T01:31:09.172Z,141.43
2018-12-07T01:33:38.558Z,94.60
2018-12-07T01:36:07.967Z,98.47
2018-12-07T01:38:37.261Z,111.90
2018-12-07T01:41:06.940Z,172.63
2018-12-07T01:43:36.813Z,144.57
2018-12-07T01:46:06.561Z,157.93
2018-12-07T01:48:37.772Z,130.30
2018-12-07T01:51:07.447Z,114.87
2018-12-07T01:53:37.091Z,149.23
2018-12-07T01:56:06.706Z,127.73
2018-12-07T01:58:37.535Z,128.33
2018-12-07T02:01:08.409Z,155.07
2018-12-07T02:03:38.079Z,146.57
2018-12-07T02:06:09.264Z,146.93
2018-12-07T02:08:38.851Z,128.73
2018-12-07T02:11:09.692Z,135.17
2018-12-07T02:13:39.132Z,134.53
2018-12-07T02:16:09.894Z,163.77
2018-12-07T02:18:39.556Z,151.87
2018-12-07T02:21:09.079Z,135.17
2018-12-07T02:23:38.592Z,128.20
2018-12-07T02:26:07.905Z,142.67
2018-12-07T02:28:37.463Z,104.10
2018-12-07T02:31:06.846Z,103.27
2018-12-07T02:33:37.017Z,114.80
2018-12-07T02:36:06.398Z,115.47
2018-12-07T02:38:37.378Z,114.10
2018-12-07T02:41:06.817Z,98.13
2018-12-07T02:43:36.367Z,98.03
2018-12-07T02:46:05.770Z,108.70
2018-12-07T02:48:35.112Z,113.47
2018-12-07T02:51:04.608Z,92.67
2018-12-07T02:53:34.160Z,108.37
2018-12-07T02:56:03.862Z,90.07
2018-12-07T02:58:33.262Z,110.00
2018-12-07T03:01:02.922Z,123.50
2018-12-07T03:03:32.495Z,121.43
2018-12-07T03:06:03.580Z,89.87
2018-12-07T03:08:33.156Z,91.00
2018-12-07T03:11:02.561Z,105.30
2018-12-07T03:13:33.463Z,96.97
2018-12-07T03:16:04.660Z,106.57
2018-12-07T03:18:34.034Z,121.50
2018-12-07T03:21:03.582Z,127.60
2018-12-07T03:23:34.385Z,122.43
2018-12-07T03:26:03.790Z,138.17
2018-12-07T03:28:33.587Z,114.37
2018-12-07T03:31:02.870Z,146.13
2018-12-07T03:33:33.886Z,124.10
2018-12-07T03:36:03.159Z,116.50
2018-12-07T03:38:34.305Z,116.30
2018-12-07T03:41:05.043Z,136.43
2018-12-07T03:43:34.333Z,135.93
2018-12-07T03:46:05.248Z,108.00
2018-12-07T03:48:34.704Z,89.53
2018-12-07T03:51:04.174Z,123.27
2018-12-07T03:53:34.253Z,109.33
2018-12-07T03:56:03.856Z,94.60
2018-12-07T03:58:33.162Z,101.80
2018-12-07T04:01:04.226Z,127.83
2018-12-07T04:03:33.728Z,105.33
2018-12-07T04:06:03.038Z,86.20
2018-12-07T04:08:32.944Z,104.60
2018-12-07T04:11:02.456Z,98.43
2018-12-07T04:13:31.830Z,117.77
2018-12-07T04:16:02.725Z,139.30
2018-12-07T04:18:32.130Z,119.53
2018-12-07T04:21:01.637Z,137.67
2018-12-07T04:23:31.982Z,118.30
2018-12-07T04:26:01.749Z,116.53
2018-12-07T04:28:33.117Z,117.67
2018-12-07T04:31:02.663Z,127.30
2018-12-07T04:33:32.401Z,98.27
2018-12-07T04:36:07.394Z,104.07
2018-12-07T04:38:37.756Z,114.30
2018-12-07T04:41:07.055Z,120.20
2018-12-07T04:43:37.011Z,110.67
2018-12-07T04:46:08.617Z,105.97
2018-12-07T04:48:37.890Z,85.53
2018-12-07T04:51:07.401Z,97.70
2018-12-07T04:53:36.786Z,84.60
2018-12-07T04:56:06.061Z,104.33
2018-12-07T04:58:35.552Z,98.07
2018-12-07T05:01:05.025Z,92.20
2018-12-07T05:03:34.346Z,96.80
2018-12-07T05:06:03.872Z,110.00
2018-12-07T05:08:33.204Z,98.10
2018-12-07T05:11:02.659Z,110.03
2018-12-07T05:13:32.104Z,119.43
2018-12-07T05:16:01.502Z,130.10
2018-12-07T05:18:31.224Z,150.50
2018-12-07T05:21:00.594Z,96.77
2018-12-07T05:23:30.279Z,90.43
2018-12-07T05:25:59.661Z,73.13
2018-12-07T05:28:29.045Z,106.87
2018-12-07T05:30:58.566Z,78.33
2018-12-07T05:33:27.932Z,83.03
2018-12-07T05:35:57.504Z,95.53
2018-12-07T05:38:27.426Z,124.80
2018-12-07T05:40:56.929Z,99.40
2018-12-07T05:43:26.650Z,113.03
2018-12-07T05:45:56.121Z,97.93
2018-12-07T05:48:25.895Z,85.80
2018-12-07T05:50:55.465Z,89.13
2018-12-07T05:53:25.559Z,96.93
2018-12-07T05:55:55.109Z,89.63
2018-12-07T05:58:24.745Z,90.37
2018-12-07T06:00:54.515Z,100.23
2018-12-07T06:03:24.985Z,94.13
2018-12-07T06:05:54.575Z,66.13
2018-12-07T06:08:24.161Z,84.60
2018-12-07T06:10:53.732Z,76.23
2018-12-07T06:13:23.340Z,63.27
2018-12-07T06:15:53.825Z,69.00
2018-12-07T06:18:23.289Z,67.63
2018-12-07T06:20:52.953Z,63.33
2018-12-07T06:23:22.838Z,74.93
2018-12-07T06:25:52.409Z,74.10
2018-12-07T06:28:22.089Z,60.77
2018-12-07T06:30:51.782Z,70.00
2018-12-07T06:33:21.541Z,73.97
2018-12-07T06:35:57.477Z,60.67
2018-12-07T06:38:27.433Z,65.77
2018-12-07T06:40:56.971Z,88.60
2018-12-07T06:43:26.461Z,64.47
2018-12-07T06:45:57.199Z,69.53
2018-12-07T06:48:26.722Z,70.77
2018-12-07T06:50:57.039Z,61.07
2018-12-07T06:53:26.693Z,48.27
2018-12-07T06:55:56.131Z,70.10
2018-12-07T06:58:25.673Z,67.80
2018-12-07T07:00:55.171Z,81.43
2018-12-07T07:03:24.689Z,101.17
2018-12-07T07:05:54.401Z,80.57
2018-12-07T07:08:24.761Z,71.87
2018-12-07T07:10:54.303Z,56.73
2018-12-07T07:13:23.695Z,81.40
2018-12-07T07:15:53.171Z,65.83
2018-12-07T07:18:22.458Z,101.13
2018-12-07T07:20:51.911Z,71.57
2018-12-07T07:23:21.618Z,79.07
2018-12-07T07:25:51.275Z,92.07
2018-12-07T07:28:20.841Z,77.53
2018-12-07T07:30:50.566Z,77.97
2018-12-07T07:33:20.145Z,85.90
2018-12-07T07:35:50.160Z,67.73
2018-12-07T07:38:19.487Z,74.30
2018-12-07T07:40:48.733Z,90.97
2018-12-07T07:43:17.982Z,61.13
2018-12-07T07:45:47.465Z,53.60
2018-12-07T07:48:17.198Z,58.90
2018-12-07T07:50:47.028Z,77.07
2018-12-07T07:53:16.804Z,95.80
2018-12-07T07:55:47.240Z,96.03
2018-12-07T07:58:16.461Z,76.20
2018-12-07T08:00:45.764Z,104.23
2018-12-07T08:03:15.367Z,85.43
2018-12-07T08:05:44.847Z,83.43
2018-12-07T08:08:14.490Z,83.77
2018-12-07T08:10:44.017Z,77.70
2018-12-07T08:13:13.350Z,67.63
2018-12-07T08:15:42.700Z,93.97
2018-12-07T08:18:12.206Z,87.37
2018-12-07T08:20:41.481Z,83.73
2018-12-07T08:23:14.745Z,79.40
2018-12-07T08:25:42.913Z,84.77
2018-12-07T08:28:12.706Z,89.00
2018-12-07T08:30:42.027Z,65.93
2018-12-07T08:33:11.366Z,88.33
2018-12-07T08:35:40.805Z,93.03
2018-12-07T08:38:10.247Z,84.20
2018-12-07T08:40:39.919Z,65.90
2018-12-07T08:43:09.378Z,79.80
2018-12-07T08:45:38.755Z,65.37
2018-12-07T08:48:08.205Z,60.30
2018-12-07T08:50:37.528Z,79.57
2018-12-07T08:53:06.840Z,64.80
2018-12-07T08:55:36.210Z,49.57
2018-12-07T08:58:05.765Z,73.83
2018-12-07T09:00:35.145Z,66.30
2018-12-07T09:03:04.526Z,47.57
2018-12-07T09:05:34.007Z,77.50
2018-12-07T09:08:03.509Z,73.63
2018-12-07T09:10:32.937Z,89.73
2018-12-07T09:13:02.537Z,70.77
2018-12-07T09:15:32.128Z,79.47
2018-12-07T09:18:01.901Z,82.87
2018-12-07T09:20:31.383Z,69.67
2018-12-07T09:23:01.204Z,94.97
2018-12-07T09:25:30.439Z,94.83
2018-12-07T09:27:59.825Z,97.87
2018-12-07T09:30:29.571Z,91.00
2018-12-07T09:32:59.211Z,80.53
2018-12-07T09:35:29.079Z,75.10
2018-12-07T09:37:58.626Z,55.63
2018-12-07T09:40:28.109Z,73.87
2018-12-07T09:42:57.742Z,91.67
2018-12-07T09:45:27.380Z,76.47
2018-12-07T09:47:56.606Z,90.87
2018-12-07T09:50:25.954Z,94.50
2018-12-07T09:52:55.477Z,96.70
2018-12-07T09:55:25.538Z,92.80
2018-12-07T09:57:55.017Z,83.10
2018-12-07T10:00:24.410Z,87.77
2018-12-07T10:02:53.693Z,93.07
2018-12-07T10:05:23.088Z,61.70
2018-12-07T10:07:52.485Z,100.43
2018-12-07T10:10:21.882Z,100.73
2018-12-07T10:12:51.309Z,92.57
2018-12-07T10:15:20.698Z,95.90
2018-12-07T10:17:50.770Z,88.63
2018-12-07T10:20:20.127Z,96.20
2018-12-07T10:22:49.453Z,82.50
2018-12-07T10:25:18.987Z,66.30
2018-12-07T10:27:52.669Z,65.03
2018-12-07T10:30:22.007Z,72.07
2018-12-07T10:32:52.987Z,85.30
2018-12-07T10:35:22.601Z,72.60
2018-12-07T10:37:52.003Z,78.57
2018-12-07T10:40:21.397Z,67.13
2018-12-07T10:42:50.974Z,67.73
2018-12-07T10:45:20.432Z,72.17
2018-12-07T10:47:50.452Z,55.93
2018-12-07T10:50:20.192Z,59.63
2018-12-07T10:52:49.702Z,50.63
2018-12-07T10:55:19.245Z,70.83
2018-12-07T10:57:49.268Z,64.97
2018-12-07T11:00:23.828Z,57.37
2018-12-07T11:02:58.816Z,60.90
2018-12-07T11:05:33.552Z,64.77
2018-12-07T11:08:08.308Z,63.70
2018-12-07T11:10:42.837Z,76.80
2018-12-07T11:13:17.614Z,70.87
2018-12-07T11:15:52.439Z,53.43
2018-12-07T11:18:27.120Z,79.97
2018-12-07T11:21:02.057Z,54.30
2018-12-07T11:23:36.707Z,48.57
2018-12-07T11:26:11.361Z,51.63
2018-12-07T11:28:46.183Z,61.97
2018-12-07T11:31:20.927Z,46.17
2018-12-07T11:34:00.160Z,42.27
2018-12-07T11:36:29.577Z,72.07
2018-12-07T11:38:59.121Z,52.13
2018-12-07T11:41:28.695Z,44.57
2018-12-07T11:44:00.632Z,63.03
2018-12-07T11:46:30.232Z,59.00
2018-12-07T11:48:59.622Z,51.03
2018-12-07T11:51:29.047Z,48.20
2018-12-07T11:59:44.076Z,49.93
2018-12-07T12:02:13.556Z,56.10
2018-12-07T12:04:42.852Z,52.97
2018-12-07T12:07:16.830Z,66.43
2018-12-07T12:09:46.332Z,65.20
2018-12-07T12:12:18.128Z,61.97
2018-12-07T12:14:47.468Z,58.63
2018-12-07T12:17:16.961Z,56.57
2018-12-07T12:19:46.620Z,63.20
2018-12-07T12:22:16.083Z,49.83
2018-12-07T12:24:45.785Z,62.27
2018-12-07T12:27:15.141Z,54.13
2018-12-07T12:29:44.676Z,66.37
2018-12-07T12:32:14.525Z,61.43
2018-12-07T12:34:43.822Z,61.67
2018-12-07T12:37:13.457Z,62.63
2018-12-07T12:39:42.768Z,62.97
2018-12-07T12:42:12.466Z,50.93
2018-12-07T12:44:43.985Z,62.40
2018-12-07T12:47:13.671Z,51.00
2018-12-07T12:49:43.616Z,61.47
2018-12-07T12:52:13.085Z,58.03
2018-12-07T12:54:42.617Z,51.77
2018-12-07T12:57:12.003Z,54.83
2018-12-07T12:59:41.338Z,60.80
2018-12-07T13:02:11.719Z,69.17
2018-12-07T13:04:41.202Z,69.23
2018-12-07T13:07:10.580Z,72.93
2018-12-07T13:09:40.145Z,66.87
2018-12-07T13:12:09.942Z,45.13
2018-12-07T13:14:39.284Z,57.63
2018-12-07T13:17:09.548Z,39.63
2018-12-07T13:19:39.600Z,69.77
2018-12-07T13:22:09.880Z,44.87
2018-12-07T13:24:39.244Z,50.97
2018-12-07T13:27:08.617Z,38.77
2018-12-07T13:29:38.096Z,50.63
2018-12-07T13:32:07.424Z,45.57
2018-12-07T13:34:36.795Z,39.77
2018-12-07T13:37:06.212Z,30.97
2018-12-07T13:39:35.748Z,29.10
2018-12-07T13:42:05.368Z,27.37
2018-12-07T13:44:35.579Z,27.30
2018-12-07T13:47:05.273Z,24.47
2018-12-07T13:53:20.517Z,20.33
2018-12-07T13:55:50.336Z,23.93
2018-12-07T13:58:19.971Z,18.40
2018-12-07T14:00:50.234Z,27.33
2018-12-07T14:03:20.024Z,29.87
2018-12-07T14:05:49.944Z,24.73
2018-12-07T14:08:20.094Z,19.73
2018-12-07T14:10:50.021Z,24.23
2018-12-07T14:13:20.044Z,21.37
2018-12-07T14:15:49.471Z,16.27
2018-12-07T14:18:19.087Z,15.87
2018-12-07T14:20:49.180Z,16.07
2018-12-07T14:23:18.679Z,20.17
2018-12-07T14:25:49.300Z,15.13
2018-12-07T14:28:20.203Z,10.47
2018-12-07T14:30:51.546Z,12.93
2018-12-07T14:33:22.937Z,17.00
2018-12-07T14:35:52.788Z,13.23
2018-12-07T14:38:22.462Z,13.10
2018-12-07T14:40:52.410Z,13.90
2018-12-07T14:43:22.291Z,18.93
2018-12-07T14:45:52.201Z,11.40
2018-12-07T14:48:22.772Z,13.07
2018-12-07T14:50:52.592Z,11.30
2018-12-07T14:53:22.414Z,11.63
2018-12-07T14:55:52.628Z,12.00
2018-12-07T14:58:22.252Z,13.10
2018-12-07T15:00:51.738Z,10.50
2018-12-07T15:03:21.925Z,16.07
2018-12-07T15:05:52.652Z,12.53
2018-12-07T15:08:22.728Z,13.50
2018-12-07T15:10:52.381Z,14.27
2018-12-07T15:13:22.216Z,12.03
2018-12-07T15:15:51.980Z,21.33
2018-12-07T15:18:21.791Z,22.43
2018-12-07T15:20:51.403Z,21.40
2018-12-07T15:23:21.133Z,20.23
2018-12-07T15:25:50.759Z,21.83
2018-12-07T15:28:20.426Z,22.50
2018-12-07T15:30:50.606Z,18.00
2018-12-07T15:33:20.568Z,24.43
2018-12-07T15:35:50.938Z,20.83
2018-12-07T15:38:20.891Z,24.67
2018-12-07T15:40:50.462Z,18.70
2018-12-07T15:43:20.594Z,18.20
2018-12-07T15:45:50.362Z,17.30
2018-12-07T15:48:20.138Z,19.00
2018-12-07T15:50:50.098Z,20.77
2018-12-07T15:53:19.726Z,22.97
2018-12-07T15:55:49.609Z,21.07
2018-12-07T15:58:19.232Z,18.80
2018-12-07T16:00:49.145Z,17.47
2018-12-07T16:03:18.981Z,17.00
2018-12-07T16:05:48.494Z,19.47
2018-12-07T16:08:24.897Z,18.03
2018-12-07T16:10:50.907Z,16.23
2018-12-07T16:13:21.099Z,18.53
2018-12-07T16:15:51.037Z,18.87
2018-12-07T16:18:20.965Z,16.60
2018-12-07T16:20:50.853Z,17.77
2018-12-07T16:23:20.889Z,16.70
2018-12-07T16:25:50.639Z,15.27
2018-12-07T16:28:20.655Z,16.87
2018-12-07T16:30:50.611Z,15.10
2018-12-07T16:33:20.185Z,18.60
2018-12-07T16:35:50.637Z,32.43
2018-12-07T16:38:20.425Z,19.57
2018-12-07T16:40:50.039Z,16.80
2018-12-07T16:43:19.589Z,17.90
2018-12-07T16:45:49.420Z,14.03
2018-12-07T16:48:19.615Z,15.17
2018-12-07T16:50:49.554Z,13.47
2018-12-07T16:53:19.300Z,15.23
2018-12-07T16:55:49.302Z,15.77
2018-12-07T16:58:19.125Z,14.87
2018-12-07T17:00:49.148Z,16.93
2018-12-07T17:03:19.303Z,26.53
2018-12-07T17:05:49.529Z,17.53
2018-12-07T17:08:19.600Z,21.93
2018-12-07T17:10:49.648Z,21.10
2018-12-07T17:13:19.487Z,18.47
2018-12-07T17:15:49.359Z,16.10
2018-12-07T17:18:19.305Z,15.03
2018-12-07T17:20:49.054Z,16.53
2018-12-07T17:23:19.482Z,15.90
2018-12-07T17:25:50.280Z,17.83
2018-12-07T17:28:19.979Z,21.43
2018-12-07T17:30:49.984Z,22.57
2018-12-07T17:33:19.851Z,17.80
2018-12-07T17:35:49.710Z,15.43
2018-12-07T17:38:19.130Z,21.67
2018-12-07T17:40:48.934Z,23.00
2018-12-07T17:43:19.485Z,18.67
2018-12-07T17:45:49.458Z,29.27
2018-12-07T17:48:19.792Z,16.10
2018-12-07T17:50:49.900Z,16.63
2018-12-07T17:53:19.864Z,14.57
2018-12-07T17:55:51.250Z,21.67
2018-12-07T17:58:21.493Z,23.83
2018-12-07T18:00:51.127Z,19.87
2018-12-07T18:03:20.608Z,19.43
2018-12-07T18:05:50.902Z,23.47
2018-12-07T18:08:20.766Z,23.70
2018-12-07T18:10:51.052Z,24.13
2018-12-07T18:13:21.465Z,14.53
2018-12-07T18:15:51.859Z,14.87
2018-12-07T18:18:22.062Z,16.90
2018-12-07T18:20:52.264Z,16.23
2018-12-07T18:23:22.786Z,20.27
2018-12-07T18:25:53.750Z,16.00
2018-12-07T18:28:23.776Z,17.70
2018-12-07T18:30:54.184Z,21.77
2018-12-07T18:33:24.375Z,25.33
2018-12-07T18:35:55.371Z,17.97
2018-12-07T18:38:25.094Z,16.17
2018-12-07T18:40:55.462Z,19.03
2018-12-07T18:43:25.123Z,20.70
2018-12-07T18:45:55.078Z,28.07
2018-12-07T18:48:25.725Z,26.87
2018-12-07T18:50:55.937Z,23.53
2018-12-07T18:53:26.725Z,25.27
2018-12-07T18:55:56.961Z,29.47
2018-12-07T18:58:27.241Z,27.07
2018-12-07T19:00:56.966Z,22.27
2018-12-07T19:03:27.972Z,28.80
2018-12-07T19:05:58.526Z,27.77
2018-12-07T19:08:28.445Z,21.37
2018-12-07T19:10:58.676Z,24.10
2018-12-07T19:13:28.868Z,19.40
2018-12-07T19:15:58.960Z,16.67
2018-12-07T19:18:29.024Z,20.73
2018-12-07T19:20:59.546Z,21.97
2018-12-07T19:23:30.189Z,22.40
2018-12-07T19:26:06.558Z,21.10
2018-12-07T19:28:36.651Z,22.90
2018-12-07T19:31:07.290Z,15.03
2018-12-07T19:33:38.312Z,17.87
2018-12-07T19:36:08.169Z,21.13
2018-12-07T19:38:38.597Z,16.23
2018-12-07T19:41:08.302Z,24.20
2018-12-07T19:43:38.653Z,17.90
2018-12-07T19:46:10.118Z,17.70
2018-12-07T19:48:40.304Z,19.97
2018-12-07T19:51:10.017Z,23.80
2018-12-07T19:53:40.482Z,29.60
2018-12-07T19:56:11.249Z,15.90
2018-12-07T19:58:42.413Z,12.60
2018-12-07T20:01:12.582Z,16.17
2018-12-07T20:03:42.668Z,18.23
2018-12-07T20:06:12.969Z,19.40
2018-12-07T20:08:43.811Z,21.40
2018-12-07T20:11:14.162Z,23.27
2018-12-07T20:13:43.904Z,20.83
2018-12-07T20:16:13.650Z,21.47
2018-12-07T20:18:43.618Z,24.97
2018-12-07T20:21:13.618Z,25.97
2018-12-07T20:23:43.674Z,22.63
2018-12-07T20:26:13.755Z,24.00
2018-12-07T20:28:43.638Z,33.50
2018-12-07T20:31:15.149Z,29.93
2018-12-07T20:33:45.403Z,34.13
2018-12-07T20:36:15.340Z,35.07
2018-12-07T20:38:45.461Z,27.27
2018-12-07T20:41:14.998Z,29.97
2018-12-07T20:43:44.855Z,24.07
2018-12-07T20:46:14.643Z,29.70
2018-12-07T20:48:44.543Z,25.77
2018-12-07T20:51:14.301Z,24.20
2018-12-07T20:53:43.850Z,27.57
2018-12-07T20:56:13.982Z,22.70
2018-12-07T20:58:43.699Z,24.60
2018-12-07T21:01:13.065Z,24.97
2018-12-07T21:04:51.574Z,24.37
2018-12-07T21:07:43.599Z,30.30
2018-12-07T21:10:44.120Z,21.20
2018-12-07T21:13:29.313Z,22.77
2018-12-07T21:16:20.435Z,29.73
2018-12-07T21:18:50.582Z,20.23
2018-12-07T21:21:28.201Z,23.50
2018-12-07T21:23:53.086Z,21.87
2018-12-07T21:26:23.371Z,23.37
2018-12-07T21:28:53.353Z,20.63
2018-12-07T21:31:23.027Z,23.60
2018-12-07T21:35:02.928Z,18.97
2018-12-07T21:37:33.649Z,26.87
2018-12-07T21:40:25.869Z,24.40
2018-12-07T21:42:55.787Z,27.97
2018-12-07T21:45:25.866Z,22.53
2018-12-07T21:48:22.860Z,20.93
2018-12-07T21:51:01.435Z,17.47
2018-12-07T21:53:31.260Z,24.87
2018-12-07T21:56:00.905Z,25.27
2018-12-07T21:58:30.891Z,22.23
2018-12-07T22:01:00.929Z,20.27
2018-12-07T22:03:31.066Z,27.63
2018-12-07T22:06:01.570Z,24.90
2018-12-07T22:08:31.888Z,22.30
2018-12-07T22:11:01.958Z,30.77
2018-12-07T22:13:31.581Z,25.23
2018-12-07T22:16:01.050Z,22.63
2018-12-07T22:18:30.689Z,21.27
2018-12-07T22:21:00.625Z,27.90
2018-12-07T22:23:30.632Z,28.73
2018-12-07T22:26:00.650Z,30.50
2018-12-07T22:28:30.965Z,29.67
2018-12-07T22:31:01.632Z,26.03
2018-12-07T22:33:32.172Z,21.73
2018-12-07T22:36:02.143Z,23.57
2018-12-07T22:38:31.820Z,27.13
2018-12-07T22:41:01.940Z,22.03
2018-12-07T22:43:31.777Z,21.07
2018-12-07T22:46:01.599Z,19.47
2018-12-07T22:48:31.628Z,17.53
2018-12-07T22:51:01.270Z,24.07
2018-12-07T22:53:31.216Z,26.23
2018-12-07T22:56:00.849Z,18.17
2018-12-07T22:58:30.324Z,22.33
2018-12-07T23:00:59.732Z,17.93
2018-12-07T23:03:31.233Z,23.30
2018-12-07T23:06:00.886Z,22.37
2018-12-07T23:08:30.337Z,52.40
2018-12-07T23:10:59.938Z,36.80
2018-12-07T23:13:30.401Z,35.77
2018-12-07T23:15:59.872Z,35.47
2018-12-07T23:18:29.377Z,25.03
2018-12-07T23:20:59.170Z,37.43
2018-12-07T23:23:28.725Z,34.00
2018-12-07T23:25:58.248Z,28.07
2018-12-07T23:28:27.892Z,37.10
2018-12-07T23:30:57.706Z,39.17
2018-12-07T23:33:27.479Z,42.83
2018-12-07T23:35:57.384Z,35.03
2018-12-07T23:38:27.200Z,46.37
2018-12-07T23:40:56.809Z,43.07
2018-12-07T23:43:26.485Z,35.63
2018-12-07T23:45:56.428Z,28.93
2018-12-07T23:48:26.064Z,38.60
2018-12-07T23:50:55.829Z,31.13
2018-12-07T23:53:25.540Z,26.50
2018-12-07T23:55:55.022Z,24.20
2018-12-07T23:58:24.394Z,38.97
